createdAt,value
2019-03-25T00:01:33.286Z,7.20
2019-03-25T00:04:05.149Z,7.30
2019-03-25T00:06:35.969Z,7.30
2019-03-25T00:09:08.546Z,7.20
2019-03-25T00:11:39.983Z,7.20
2019-03-25T00:14:13.127Z,7.30
2019-03-25T00:16:43.960Z,7.20
2019-03-25T00:19:14.962Z,7.20
2019-03-25T00:21:45.771Z,7.20
2019-03-25T00:24:16.950Z,7.20
2019-03-25T00:26:47.746Z,7.10
2019-03-25T00:29:18.944Z,7.10
2019-03-25T00:31:49.784Z,7.00
2019-03-25T00:34:20.606Z,7.00
2019-03-25T00:36:51.484Z,7.00
2019-03-25T00:39:22.362Z,7.00
2019-03-25T00:41:53.115Z,7.10
2019-03-25T00:44:24.018Z,7.00
2019-03-25T00:46:54.888Z,6.90
2019-03-25T00:49:25.664Z,6.80
2019-03-25T00:51:56.501Z,6.80
2019-03-25T00:54:27.298Z,6.70
2019-03-25T00:56:58.081Z,6.70
2019-03-25T00:59:28.982Z,6.60
2019-03-25T01:01:59.781Z,6.60
2019-03-25T01:04:30.742Z,6.60
2019-03-25T01:07:01.538Z,6.70
2019-03-25T01:09:32.447Z,6.70
2019-03-25T01:12:03.285Z,6.70
2019-03-25T01:14:34.138Z,6.70
2019-03-25T01:17:05.020Z,6.60
2019-03-25T01:19:35.868Z,6.60
2019-03-25T01:22:06.732Z,6.60
2019-03-25T01:24:38.899Z,6.50
2019-03-25T01:27:10.782Z,6.50
2019-03-25T01:29:41.579Z,6.50
2019-03-25T01:32:12.602Z,6.40
2019-03-25T01:34:43.601Z,6.40
2019-03-25T01:37:14.492Z,6.40
2019-03-25T01:39:45.278Z,6.40
2019-03-25T01:42:16.078Z,6.40
2019-03-25T01:44:46.904Z,6.20
2019-03-25T01:47:17.729Z,6.20
2019-03-25T01:49:48.557Z,6.20
2019-03-25T01:52:19.519Z,6.20
2019-03-25T01:54:50.291Z,6.20
2019-03-25T01:57:21.133Z,6.20
2019-03-25T01:59:51.981Z,6.10
2019-03-25T02:02:23.255Z,6.10
2019-03-25T02:04:54.046Z,6.10
2019-03-25T02:07:25.232Z,6.20
2019-03-25T02:09:56.063Z,6.10
2019-03-25T02:12:28.138Z,6.10
2019-03-25T02:14:58.872Z,6.20
2019-03-25T02:17:29.809Z,6.20
2019-03-25T02:20:00.636Z,6.10
2019-03-25T02:22:31.557Z,6.10
2019-03-25T02:25:02.379Z,6.10
2019-03-25T02:27:33.256Z,6.10
2019-03-25T02:30:04.611Z,6.10
2019-03-25T02:32:35.499Z,6.00
2019-03-25T02:35:07.206Z,6.00
2019-03-25T02:37:39.152Z,6.00
2019-03-25T02:40:10.012Z,6.00
2019-03-25T02:42:41.443Z,5.90
2019-03-25T02:45:12.254Z,5.90
2019-03-25T02:47:43.044Z,5.90
2019-03-25T02:50:14.098Z,5.90
2019-03-25T02:52:44.908Z,5.90
2019-03-25T02:55:16.017Z,5.80
2019-03-25T02:57:46.835Z,5.80
2019-03-25T03:00:36.860Z,5.80
2019-03-25T03:03:08.778Z,5.80
2019-03-25T03:05:39.981Z,5.70
2019-03-25T03:08:10.753Z,5.80
2019-03-25T03:10:41.457Z,5.80
2019-03-25T03:13:12.692Z,5.80
2019-03-25T03:15:44.808Z,5.80
2019-03-25T03:18:16.789Z,5.70
2019-03-25T03:20:47.812Z,5.80
2019-03-25T03:23:19.615Z,5.80
2019-03-25T03:25:57.432Z,5.70
2019-03-25T03:28:22.941Z,5.70
2019-03-25T03:30:54.212Z,5.70
2019-03-25T03:33:25.385Z,5.70
2019-03-25T03:35:56.150Z,5.80
2019-03-25T03:38:27.226Z,5.80
2019-03-25T03:40:58.320Z,5.80
2019-03-25T03:43:30.753Z,5.70
2019-03-25T03:46:01.632Z,5.80
2019-03-25T03:48:32.460Z,5.80
2019-03-25T03:51:03.634Z,5.70
2019-03-25T03:53:34.909Z,5.70
2019-03-25T03:56:13.613Z,5.70
2019-03-25T03:58:39.838Z,5.60
2019-03-25T04:01:10.881Z,5.70
2019-03-25T04:03:41.792Z,5.70
2019-03-25T04:06:12.553Z,5.70
2019-03-25T04:08:43.299Z,5.70
2019-03-25T04:11:15.066Z,5.70
2019-03-25T04:13:45.911Z,5.70
2019-03-25T04:16:18.138Z,5.70
2019-03-25T04:18:49.113Z,5.70
2019-03-25T04:21:20.149Z,5.70
2019-03-25T04:23:50.896Z,5.70
2019-03-25T04:26:28.390Z,5.70
2019-03-25T04:28:54.529Z,5.80
2019-03-25T04:31:25.356Z,5.90
2019-03-25T04:33:56.148Z,5.80
2019-03-25T04:36:26.954Z,5.90
2019-03-25T04:38:57.838Z,5.90
2019-03-25T04:41:28.592Z,6.00
2019-03-25T04:43:59.350Z,6.00
2019-03-25T04:46:30.155Z,6.10
2019-03-25T04:49:00.934Z,6.10
2019-03-25T04:51:31.826Z,6.20
2019-03-25T04:54:02.734Z,6.10
2019-03-25T04:56:39.720Z,6.20
2019-03-25T04:59:05.972Z,6.20
2019-03-25T05:01:36.988Z,6.20
2019-03-25T05:04:07.794Z,6.30
2019-03-25T05:06:38.582Z,6.30
2019-03-25T05:09:09.997Z,6.20
2019-03-25T05:11:40.812Z,6.10
2019-03-25T05:14:11.570Z,6.10
2019-03-25T05:16:42.794Z,6.10
2019-03-25T05:19:13.558Z,6.10
2019-03-25T05:21:44.365Z,6.00
2019-03-25T05:24:15.639Z,6.00
2019-03-25T05:26:50.882Z,6.10
2019-03-25T05:29:19.187Z,6.10
2019-03-25T05:31:50.018Z,6.10
2019-03-25T05:34:21.114Z,6.20
2019-03-25T05:36:51.976Z,6.30
2019-03-25T05:39:23.729Z,6.40
2019-03-25T05:41:54.468Z,6.20
2019-03-25T05:44:25.706Z,6.20
2019-03-25T05:46:56.752Z,6.40
2019-03-25T05:49:27.515Z,6.10
2019-03-25T05:51:58.326Z,6.10
2019-03-25T05:54:29.126Z,6.00
2019-03-25T05:57:02.808Z,6.00
2019-03-25T05:59:32.367Z,6.00
2019-03-25T06:02:03.232Z,6.10
2019-03-25T06:04:34.043Z,6.20
2019-03-25T06:07:04.882Z,6.30
2019-03-25T06:09:35.742Z,6.40
2019-03-25T06:12:06.529Z,6.50
2019-03-25T06:14:37.614Z,6.50
2019-03-25T06:17:08.401Z,6.60
2019-03-25T06:19:39.597Z,6.90
2019-03-25T06:22:10.409Z,6.90
2019-03-25T06:24:41.847Z,7.10
2019-03-25T06:27:14.506Z,7.20
2019-03-25T06:29:45.190Z,7.50
2019-03-25T06:32:16.055Z,7.50
2019-03-25T06:34:47.941Z,7.40
2019-03-25T06:37:19.045Z,7.20
2019-03-25T06:39:49.935Z,7.30
2019-03-25T06:42:20.786Z,7.30
2019-03-25T06:44:51.777Z,7.10
2019-03-25T06:47:22.933Z,6.90
2019-03-25T06:49:53.839Z,7.10
2019-03-25T06:52:24.709Z,7.40
2019-03-25T06:54:55.500Z,7.50
2019-03-25T06:57:26.394Z,7.50
2019-03-25T06:59:57.253Z,7.40
2019-03-25T07:02:28.569Z,7.20
2019-03-25T07:04:59.441Z,7.20
2019-03-25T07:07:30.401Z,7.40
2019-03-25T07:10:01.475Z,7.60
2019-03-25T07:12:32.383Z,7.70
2019-03-25T07:15:03.238Z,7.70
2019-03-25T07:17:33.977Z,7.50
2019-03-25T07:20:05.173Z,7.90
2019-03-25T07:22:37.257Z,8.00
2019-03-25T07:25:08.779Z,8.20
2019-03-25T07:27:39.593Z,8.20
2019-03-25T07:30:11.611Z,8.40
2019-03-25T07:32:42.485Z,8.60
2019-03-25T07:35:13.919Z,8.80
2019-03-25T07:37:44.719Z,8.70
2019-03-25T07:40:16.183Z,8.50
2019-03-25T07:42:47.021Z,8.30
2019-03-25T07:45:18.088Z,8.70
2019-03-25T07:47:49.205Z,8.80
2019-03-25T07:50:20.005Z,9.10
2019-03-25T07:52:50.958Z,8.70
2019-03-25T07:55:22.642Z,8.80
2019-03-25T07:57:53.562Z,8.90
2019-03-25T08:00:24.602Z,9.20
2019-03-25T08:02:55.454Z,9.10
2019-03-25T08:05:26.380Z,9.20
2019-03-25T08:07:57.191Z,9.10
2019-03-25T08:10:37.586Z,8.90
2019-03-25T08:13:08.450Z,8.70
2019-03-25T08:15:39.286Z,8.90
2019-03-25T08:18:10.133Z,8.80
2019-03-25T08:20:40.888Z,8.40
2019-03-25T08:23:11.863Z,8.70
2019-03-25T08:25:42.662Z,8.60
2019-03-25T08:28:13.494Z,8.90
2019-03-25T08:30:44.531Z,8.80
2019-03-25T08:33:15.297Z,9.10
2019-03-25T08:35:46.541Z,9.00
2019-03-25T08:38:17.324Z,8.90
2019-03-25T08:40:48.144Z,9.10
2019-03-25T08:43:18.950Z,9.10
2019-03-25T08:45:49.735Z,9.60
2019-03-25T08:48:20.531Z,9.90
2019-03-25T08:50:51.476Z,9.50
2019-03-25T08:53:22.310Z,9.40
2019-03-25T08:55:53.845Z,9.50
2019-03-25T08:58:24.676Z,9.60
2019-03-25T09:00:55.814Z,9.90
2019-03-25T09:03:26.612Z,9.80
2019-03-25T09:05:59.456Z,9.90
2019-03-25T09:08:30.522Z,9.60
2019-03-25T09:11:01.611Z,9.40
2019-03-25T09:13:32.536Z,9.50
2019-03-25T09:16:03.798Z,9.70
2019-03-25T09:18:34.750Z,9.40
2019-03-25T09:21:05.582Z,9.10
2019-03-25T09:23:36.390Z,9.20
2019-03-25T09:26:07.210Z,9.00
2019-03-25T09:28:38.038Z,9.50
2019-03-25T09:31:14.712Z,9.40
2019-03-25T09:33:46.674Z,9.80
2019-03-25T09:36:22.288Z,9.80
2019-03-25T09:38:53.756Z,9.50
2019-03-25T09:41:24.534Z,9.60
2019-03-25T09:43:55.372Z,9.50
2019-03-25T09:46:26.524Z,9.70
2019-03-25T09:48:57.328Z,9.50
2019-03-25T09:51:28.137Z,9.60
2019-03-25T09:53:59.023Z,9.60
2019-03-25T09:56:30.549Z,9.60
2019-03-25T09:59:01.336Z,9.90
2019-03-25T10:01:32.184Z,9.70
2019-03-25T10:04:03.018Z,9.80
2019-03-25T10:06:34.131Z,9.70
2019-03-25T10:09:08.964Z,10.00
2019-03-25T10:11:39.771Z,10.10
2019-03-25T10:14:10.629Z,9.80
2019-03-25T10:16:41.465Z,9.50
2019-03-25T10:19:13.588Z,9.60
2019-03-25T10:21:44.425Z,9.60
2019-03-25T10:24:15.515Z,9.70
2019-03-25T10:26:47.842Z,9.30
2019-03-25T10:29:18.555Z,9.30
2019-03-25T10:31:49.392Z,9.30
2019-03-25T10:34:20.193Z,9.80
2019-03-25T10:36:50.995Z,10.00
2019-03-25T10:39:21.805Z,10.10
2019-03-25T10:41:52.599Z,10.00
2019-03-25T10:44:23.457Z,10.60
2019-03-25T10:46:54.468Z,10.50
2019-03-25T10:49:25.279Z,9.70
2019-03-25T10:51:57.385Z,10.10
2019-03-25T10:54:28.424Z,9.90
2019-03-25T10:57:00.213Z,9.70
2019-03-25T10:59:31.005Z,9.70
2019-03-25T11:02:02.088Z,9.60
2019-03-25T11:04:34.104Z,9.90
2019-03-25T11:07:05.643Z,9.80
2019-03-25T11:09:37.085Z,9.90
2019-03-25T11:12:08.049Z,10.10
2019-03-25T11:14:38.896Z,10.00
2019-03-25T11:17:09.830Z,10.10
2019-03-25T11:19:40.596Z,10.60
2019-03-25T11:22:13.098Z,10.80
2019-03-25T11:24:43.886Z,10.60
2019-03-25T11:27:14.827Z,10.60
2019-03-25T11:29:45.628Z,10.70
2019-03-25T11:32:16.712Z,10.80
2019-03-25T11:34:47.548Z,10.30
2019-03-25T11:37:18.363Z,10.20
2019-03-25T11:39:49.165Z,10.10
2019-03-25T11:42:20.030Z,10.70
2019-03-25T11:44:50.798Z,10.40
2019-03-25T11:47:23.770Z,9.80
2019-03-25T11:49:54.190Z,9.60
2019-03-25T11:52:25.166Z,9.60
2019-03-25T11:54:56.006Z,9.20
2019-03-25T11:57:26.842Z,9.40
2019-03-25T11:59:57.810Z,9.30
2019-03-25T12:02:28.600Z,9.40
2019-03-25T12:04:59.729Z,9.80
2019-03-25T12:07:30.514Z,9.60
2019-03-25T12:10:01.558Z,9.60
2019-03-25T12:12:32.566Z,9.70
2019-03-25T12:15:03.486Z,9.70
2019-03-25T12:17:34.526Z,9.60
2019-03-25T12:20:05.636Z,9.60
2019-03-25T12:22:36.810Z,9.40
2019-03-25T12:25:08.231Z,9.40
2019-03-25T12:27:40.967Z,9.40
2019-03-25T12:30:13.000Z,9.40
2019-03-25T12:32:44.207Z,9.90
2019-03-25T12:35:15.174Z,10.00
2019-03-25T12:37:46.310Z,10.00
2019-03-25T12:40:17.792Z,9.60
2019-03-25T12:42:48.571Z,9.40
2019-03-25T12:45:19.872Z,9.30
2019-03-25T12:47:50.588Z,9.40
2019-03-25T12:50:21.402Z,9.60
2019-03-25T12:52:53.225Z,9.80
2019-03-25T12:55:24.086Z,9.40
2019-03-25T12:57:54.915Z,9.80
2019-03-25T13:00:41.822Z,9.70
2019-03-25T13:03:12.790Z,9.90
2019-03-25T13:05:43.630Z,9.90
2019-03-25T13:08:14.501Z,9.10
2019-03-25T13:10:45.350Z,9.30
2019-03-25T13:13:16.914Z,9.60
2019-03-25T13:15:47.727Z,9.70
2019-03-25T13:18:19.166Z,9.30
2019-03-25T13:21:03.895Z,9.10
2019-03-25T13:23:35.032Z,9.10
2019-03-25T13:26:05.984Z,9.20
2019-03-25T13:28:36.802Z,9.20
2019-03-25T13:31:08.870Z,9.10
2019-03-25T13:33:39.920Z,9.10
2019-03-25T13:36:10.765Z,9.40
2019-03-25T13:38:41.570Z,9.50
2019-03-25T13:41:12.347Z,9.20
2019-03-25T13:43:43.900Z,9.00
2019-03-25T13:46:14.705Z,9.20
2019-03-25T13:48:45.570Z,9.50
2019-03-25T13:51:16.369Z,9.20
2019-03-25T13:53:49.283Z,9.40
2019-03-25T13:56:20.144Z,9.50
2019-03-25T13:58:51.048Z,9.60
2019-03-25T14:01:21.970Z,9.70
2019-03-25T14:03:52.753Z,9.30
2019-03-25T14:06:23.552Z,9.20
2019-03-25T14:08:55.839Z,9.40
2019-03-25T14:11:26.911Z,9.60
2019-03-25T14:14:00.114Z,9.60
2019-03-25T14:16:30.222Z,9.80
2019-03-25T14:19:01.031Z,9.90
2019-03-25T14:21:31.822Z,9.80
2019-03-25T14:24:02.610Z,9.80
2019-03-25T14:26:33.483Z,9.80
2019-03-25T14:29:04.337Z,9.40
2019-03-25T14:31:35.212Z,9.20
2019-03-25T14:34:06.949Z,9.60
2019-03-25T14:36:37.776Z,9.40
2019-03-25T14:39:08.623Z,9.20
2019-03-25T14:41:39.378Z,8.90
2019-03-25T14:44:10.187Z,9.40
2019-03-25T14:46:41.006Z,9.30
2019-03-25T14:49:11.811Z,8.70
2019-03-25T14:51:42.584Z,8.40
2019-03-25T14:54:14.027Z,8.50
2019-03-25T14:56:46.449Z,8.30
2019-03-25T14:59:17.295Z,7.50
2019-03-25T15:01:48.073Z,7.40
2019-03-25T15:04:18.866Z,7.40
2019-03-25T15:06:49.667Z,6.90
2019-03-25T15:09:21.704Z,7.10
2019-03-25T15:11:52.566Z,6.60
2019-03-25T15:14:23.503Z,6.50
2019-03-25T15:16:54.271Z,6.20
2019-03-25T15:19:25.216Z,5.50
2019-03-25T15:21:56.571Z,5.00
2019-03-25T15:24:27.358Z,4.40
2019-03-25T15:26:58.556Z,4.30
2019-03-25T15:29:29.510Z,4.00
2019-03-25T15:32:00.535Z,3.80
2019-03-25T15:34:31.327Z,3.90
2019-03-25T15:37:02.499Z,4.00
2019-03-25T15:39:33.811Z,4.20
2019-03-25T15:42:08.435Z,4.20
2019-03-25T15:44:39.271Z,4.40
2019-03-25T15:47:10.250Z,4.40
2019-03-25T15:49:42.114Z,4.50
2019-03-25T15:52:13.114Z,4.50
2019-03-25T15:54:43.945Z,4.70
2019-03-25T15:57:15.381Z,4.80
2019-03-25T15:59:46.263Z,4.70
2019-03-25T16:02:17.082Z,4.70
2019-03-25T16:04:48.146Z,4.90
2019-03-25T16:07:18.941Z,4.90
2019-03-25T16:09:50.431Z,4.80
2019-03-25T16:12:21.606Z,5.00
2019-03-25T16:14:52.499Z,4.90
2019-03-25T16:17:23.611Z,5.10
2019-03-25T16:19:54.394Z,5.10
2019-03-25T16:22:25.298Z,5.10
2019-03-25T16:24:56.370Z,5.20
2019-03-25T16:27:27.090Z,5.20
2019-03-25T16:29:57.866Z,5.30
2019-03-25T16:32:28.771Z,5.40
2019-03-25T16:35:00.581Z,5.50
2019-03-25T16:37:31.433Z,5.50
2019-03-25T16:40:02.635Z,5.60
2019-03-25T16:42:33.525Z,5.60
2019-03-25T16:45:04.876Z,5.60
2019-03-25T16:47:35.874Z,5.70
2019-03-25T16:50:07.062Z,5.70
2019-03-25T16:52:37.934Z,5.70
2019-03-25T16:55:08.938Z,5.70
2019-03-25T16:57:40.530Z,5.70
2019-03-25T17:00:12.084Z,5.70
2019-03-25T17:02:43.294Z,5.70
2019-03-25T17:05:14.306Z,5.70
2019-03-25T17:07:45.411Z,5.60
2019-03-25T17:10:16.994Z,5.60
2019-03-25T17:12:47.799Z,5.50
2019-03-25T17:15:19.041Z,5.40
2019-03-25T17:17:49.857Z,5.40
2019-03-25T17:20:20.930Z,5.40
2019-03-25T17:22:51.971Z,5.40
2019-03-25T17:25:23.420Z,5.40
2019-03-25T17:27:55.135Z,5.30
2019-03-25T17:30:26.938Z,5.30
2019-03-25T17:32:58.618Z,5.20
2019-03-25T17:35:30.664Z,5.20
2019-03-25T17:38:01.435Z,5.10
2019-03-25T17:40:32.277Z,5.10
2019-03-25T17:43:03.523Z,5.10
2019-03-25T17:45:34.423Z,5.10
2019-03-25T17:48:05.330Z,5.10
2019-03-25T17:50:36.112Z,5.00
2019-03-25T17:53:07.393Z,5.00
2019-03-25T17:55:38.111Z,5.10
2019-03-25T17:58:09.357Z,5.00
2019-03-25T18:01:09.520Z,5.00
2019-03-25T18:03:40.768Z,5.00
2019-03-25T18:06:12.463Z,5.00
2019-03-25T18:08:43.673Z,5.10
2019-03-25T18:11:17.026Z,5.10
2019-03-25T18:13:48.994Z,5.20
2019-03-25T18:16:19.901Z,5.20
2019-03-25T18:18:50.859Z,5.10
2019-03-25T18:21:21.911Z,5.00
2019-03-25T18:23:52.919Z,4.20
2019-03-25T18:26:25.059Z,3.50
2019-03-25T18:28:56.231Z,3.20
2019-03-25T18:31:27.344Z,3.30
2019-03-25T18:33:58.544Z,3.50
2019-03-25T18:36:29.936Z,3.60
2019-03-25T18:39:00.739Z,3.70
2019-03-25T18:41:33.578Z,3.80
2019-03-25T18:44:04.759Z,3.90
2019-03-25T18:46:35.631Z,4.00
2019-03-25T18:49:06.663Z,4.10
2019-03-25T18:51:37.583Z,4.10
2019-03-25T18:54:08.528Z,4.20
2019-03-25T18:56:39.579Z,4.20
2019-03-25T18:59:12.024Z,4.20
2019-03-25T19:01:53.804Z,4.10
2019-03-25T19:04:15.449Z,4.10
2019-03-25T19:06:48.887Z,4.10
2019-03-25T19:09:19.961Z,4.10
2019-03-25T19:11:50.887Z,4.00
2019-03-25T19:14:21.746Z,4.00
2019-03-25T19:16:53.090Z,4.00
2019-03-25T19:19:25.496Z,4.00
2019-03-25T19:22:01.026Z,4.00
2019-03-25T19:24:32.062Z,4.00
2019-03-25T19:27:03.103Z,4.00
2019-03-25T19:29:34.534Z,4.00
2019-03-25T19:32:07.040Z,4.10
2019-03-25T19:34:38.791Z,4.10
2019-03-25T19:37:10.002Z,4.10
2019-03-25T19:39:40.840Z,4.10
2019-03-25T19:42:11.968Z,4.10
2019-03-25T19:44:42.771Z,4.10
2019-03-25T19:47:14.259Z,4.10
2019-03-25T19:49:45.104Z,4.10
2019-03-25T19:52:16.056Z,4.00
2019-03-25T19:54:46.894Z,4.10
2019-03-25T19:57:17.729Z,4.10
2019-03-25T19:59:48.855Z,4.10
2019-03-25T20:02:20.118Z,4.00
2019-03-25T20:04:50.921Z,4.00
2019-03-25T20:07:23.026Z,4.00
2019-03-25T20:09:53.925Z,4.00
2019-03-25T20:12:24.672Z,4.00
2019-03-25T20:14:55.474Z,4.00
2019-03-25T20:17:26.923Z,4.00
2019-03-25T20:19:57.724Z,4.00
2019-03-25T20:22:28.571Z,4.00
2019-03-25T20:24:59.470Z,4.00
2019-03-25T20:27:30.307Z,3.90
2019-03-25T20:30:01.192Z,3.90
2019-03-25T20:32:33.588Z,3.90
2019-03-25T20:35:04.842Z,3.90
2019-03-25T20:37:35.861Z,3.90
2019-03-25T20:40:07.060Z,3.90
2019-03-25T20:42:37.866Z,3.90
2019-03-25T20:45:09.441Z,3.90
2019-03-25T20:47:40.391Z,3.90
2019-03-25T20:50:11.302Z,3.90
2019-03-25T20:52:42.223Z,3.90
2019-03-25T20:55:13.337Z,3.90
2019-03-25T20:57:44.186Z,3.90
2019-03-25T21:00:15.885Z,3.90
2019-03-25T21:02:46.852Z,3.80
2019-03-25T21:05:18.843Z,3.80
2019-03-25T21:07:50.257Z,3.80
2019-03-25T21:10:21.166Z,3.80
2019-03-25T21:12:54.046Z,3.70
2019-03-25T21:15:25.010Z,3.70
2019-03-25T21:17:56.365Z,3.70
2019-03-25T21:20:27.635Z,3.70
2019-03-25T21:22:58.714Z,3.70
2019-03-25T21:25:29.585Z,3.70
2019-03-25T21:28:00.698Z,3.60
2019-03-25T21:30:31.460Z,3.60
2019-03-25T21:33:03.083Z,3.60
2019-03-25T21:35:33.874Z,3.60
2019-03-25T21:38:05.182Z,3.60
2019-03-25T21:40:36.271Z,3.60
2019-03-25T21:43:07.481Z,3.60
2019-03-25T21:45:38.835Z,3.60
2019-03-25T21:48:10.449Z,3.60
2019-03-25T21:50:41.888Z,3.60
2019-03-25T21:53:12.813Z,3.60
2019-03-25T21:55:44.136Z,3.60
2019-03-25T21:58:15.151Z,3.60
2019-03-25T22:00:46.019Z,3.60
2019-03-25T22:03:16.801Z,3.60
2019-03-25T22:05:47.591Z,3.50
2019-03-25T22:08:18.825Z,3.50
2019-03-25T22:10:49.711Z,3.40
2019-03-25T22:13:20.480Z,3.40
2019-03-25T22:15:51.317Z,3.40
2019-03-25T22:18:22.278Z,3.30
2019-03-25T22:20:54.323Z,3.30
2019-03-25T22:23:25.331Z,3.30
2019-03-25T22:25:56.072Z,3.20
2019-03-25T22:28:26.853Z,3.20
2019-03-25T22:30:57.912Z,3.20
2019-03-25T22:33:28.815Z,3.10
2019-03-25T22:35:59.744Z,3.10
2019-03-25T22:38:30.500Z,3.10
2019-03-25T22:41:01.309Z,3.10
2019-03-25T22:43:33.402Z,3.20
2019-03-25T22:46:04.149Z,3.20
2019-03-25T22:48:35.051Z,3.20
2019-03-25T22:51:05.926Z,3.20
2019-03-25T22:53:36.765Z,3.30
2019-03-25T22:56:07.694Z,3.30
2019-03-25T22:58:38.502Z,3.30
2019-03-25T23:01:09.540Z,3.30
2019-03-25T23:03:40.563Z,3.20
2019-03-25T23:06:11.482Z,3.20
2019-03-25T23:08:43.210Z,3.20
2019-03-25T23:11:14.039Z,3.20
2019-03-25T23:13:44.881Z,3.10
2019-03-25T23:16:15.682Z,3.10
2019-03-25T23:18:47.660Z,3.10
2019-03-25T23:21:18.695Z,3.10
2019-03-25T23:23:49.506Z,3.10
2019-03-25T23:26:20.668Z,3.10
2019-03-25T23:28:51.498Z,3.10
2019-03-25T23:31:22.378Z,3.10
2019-03-25T23:33:53.178Z,3.10
2019-03-25T23:36:24.018Z,3.00
2019-03-25T23:38:55.481Z,3.00
2019-03-25T23:41:26.334Z,3.00
2019-03-25T23:43:57.141Z,2.90
2019-03-25T23:46:27.976Z,2.90
2019-03-25T23:48:58.762Z,2.90
2019-03-25T23:51:29.546Z,2.90
2019-03-25T23:54:13.191Z,2.90
2019-03-25T23:56:44.266Z,2.90
2019-03-25T23:59:15.063Z,2.90
